sensor_id;sensor_type;location;lat;lon;timestamp;P1;durP1;ratioP1;P2;durP2;ratioP2
32964;SDS011;19317;48.226;11.686;2023-11-21T00:01:03;4.43;;;2.40;;
32964;SDS011;19317;48.226;11.686;2023-11-21T00:05:54;5.53;;;2.70;;
32964;SDS011;19317;48.226;11.686;2023-11-21T00:10:45;4.77;;;2.43;;
32964;SDS011;19317;48.226;11.686;2023-11-21T00:15:36;6.23;;;2.80;;
32964;SDS011;19317;48.226;11.686;2023-11-21T00:20:27;4.73;;;2.57;;
32964;SDS011;19317;48.226;11.686;2023-11-21T00:25:18;4.73;;;2.63;;
32964;SDS011;19317;48.226;11.686;2023-11-21T00:30:09;4.93;;;2.37;;
32964;SDS011;19317;48.226;11.686;2023-11-21T00:35:00;6.00;;;2.57;;
32964;SDS011;19317;48.226;11.686;2023-11-21T00:39:51;4.00;;;2.10;;
32964;SDS011;19317;48.226;11.686;2023-11-21T00:44:42;2.90;;;2.00;;
32964;SDS011;19317;48.226;11.686;2023-11-21T00:49:32;2.57;;;1.97;;
32964;SDS011;19317;48.226;11.686;2023-11-21T00:54:23;2.77;;;2.07;;
32964;SDS011;19317;48.226;11.686;2023-11-21T00:59:14;3.37;;;2.10;;
32964;SDS011;19317;48.226;11.686;2023-11-21T01:04:05;2.77;;;2.00;;
32964;SDS011;19317;48.226;11.686;2023-11-21T01:08:56;2.37;;;2.10;;
32964;SDS011;19317;48.226;11.686;2023-11-21T01:13:47;2.77;;;2.10;;
32964;SDS011;19317;48.226;11.686;2023-11-21T01:18:38;2.77;;;1.80;;
32964;SDS011;19317;48.226;11.686;2023-11-21T01:23:29;2.70;;;1.87;;
32964;SDS011;19317;48.226;11.686;2023-11-21T01:28:19;3.73;;;2.10;;
32964;SDS011;19317;48.226;11.686;2023-11-21T01:33:10;2.10;;;1.90;;
32964;SDS011;19317;48.226;11.686;2023-11-21T01:38:01;3.27;;;1.93;;
32964;SDS011;19317;48.226;11.686;2023-11-21T01:42:53;2.27;;;1.90;;
32964;SDS011;19317;48.226;11.686;2023-11-21T01:47:44;2.03;;;1.80;;
32964;SDS011;19317;48.226;11.686;2023-11-21T01:52:35;5.47;;;2.33;;
32964;SDS011;19317;48.226;11.686;2023-11-21T01:57:26;2.53;;;2.07;;
32964;SDS011;19317;48.226;11.686;2023-11-21T02:02:17;4.37;;;2.30;;
32964;SDS011;19317;48.226;11.686;2023-11-21T02:07:08;3.63;;;2.07;;
32964;SDS011;19317;48.226;11.686;2023-11-21T02:11:59;5.73;;;2.20;;
32964;SDS011;19317;48.226;11.686;2023-11-21T02:16:51;4.50;;;2.30;;
32964;SDS011;19317;48.226;11.686;2023-11-21T02:21:42;4.70;;;2.17;;
32964;SDS011;19317;48.226;11.686;2023-11-21T02:26:33;3.53;;;2.20;;
32964;SDS011;19317;48.226;11.686;2023-11-21T02:31:23;3.43;;;2.10;;
32964;SDS011;19317;48.226;11.686;2023-11-21T02:36:14;4.77;;;2.10;;
32964;SDS011;19317;48.226;11.686;2023-11-21T02:41:05;2.47;;;1.90;;
32964;SDS011;19317;48.226;11.686;2023-11-21T02:45:56;3.30;;;1.90;;
32964;SDS011;19317;48.226;11.686;2023-11-21T02:50:47;5.30;;;2.40;;
32964;SDS011;19317;48.226;11.686;2023-11-21T02:55:38;4.30;;;2.20;;
32964;SDS011;19317;48.226;11.686;2023-11-21T03:00:29;3.43;;;2.10;;
32964;SDS011;19317;48.226;11.686;2023-11-21T03:05:20;2.50;;;2.00;;
32964;SDS011;19317;48.226;11.686;2023-11-21T03:10:11;2.13;;;1.93;;
32964;SDS011;19317;48.226;11.686;2023-11-21T03:15:01;3.67;;;2.10;;
32964;SDS011;19317;48.226;11.686;2023-11-21T03:19:52;2.23;;;2.03;;
32964;SDS011;19317;48.226;11.686;2023-11-21T03:24:43;2.07;;;1.93;;
32964;SDS011;19317;48.226;11.686;2023-11-21T03:29:34;3.10;;;1.93;;
32964;SDS011;19317;48.226;11.686;2023-11-21T03:34:26;3.27;;;2.10;;
32964;SDS011;19317;48.226;11.686;2023-11-21T03:39:17;2.23;;;2.03;;
32964;SDS011;19317;48.226;11.686;2023-11-21T03:44:08;2.83;;;2.07;;
32964;SDS011;19317;48.226;11.686;2023-11-21T03:48:59;3.10;;;2.33;;
32964;SDS011;19317;48.226;11.686;2023-11-21T03:53:50;5.00;;;2.13;;
32964;SDS011;19317;48.226;11.686;2023-11-21T03:58:40;6.77;;;2.30;;
32964;SDS011;19317;48.226;11.686;2023-11-21T04:03:31;3.63;;;2.40;;
32964;SDS011;19317;48.226;11.686;2023-11-21T04:08:22;3.30;;;2.20;;
32964;SDS011;19317;48.226;11.686;2023-11-21T04:13:13;2.60;;;2.30;;
32964;SDS011;19317;48.226;11.686;2023-11-21T04:18:04;5.10;;;2.27;;
32964;SDS011;19317;48.226;11.686;2023-11-21T04:22:55;3.00;;;2.07;;
32964;SDS011;19317;48.226;11.686;2023-11-21T04:27:46;5.80;;;4.17;;
32964;SDS011;19317;48.226;11.686;2023-11-21T04:32:37;3.50;;;2.47;;
32964;SDS011;19317;48.226;11.686;2023-11-21T04:37:28;3.73;;;2.40;;
32964;SDS011;19317;48.226;11.686;2023-11-21T04:42:19;3.07;;;2.10;;
32964;SDS011;19317;48.226;11.686;2023-11-21T04:47:10;2.73;;;2.13;;
32964;SDS011;19317;48.226;11.686;2023-11-21T04:52:01;5.93;;;2.10;;
32964;SDS011;19317;48.226;11.686;2023-11-21T04:56:52;3.20;;;2.10;;
32964;SDS011;19317;48.226;11.686;2023-11-21T05:01:42;3.13;;;2.30;;
32964;SDS011;19317;48.226;11.686;2023-11-21T05:06:34;4.50;;;2.00;;
32964;SDS011;19317;48.226;11.686;2023-11-21T05:11:25;3.10;;;2.20;;
32964;SDS011;19317;48.226;11.686;2023-11-21T05:16:16;3.20;;;2.10;;
32964;SDS011;19317;48.226;11.686;2023-11-21T05:21:07;2.80;;;1.90;;
32964;SDS011;19317;48.226;11.686;2023-11-21T05:25:58;3.37;;;2.10;;
32964;SDS011;19317;48.226;11.686;2023-11-21T05:30:49;3.80;;;1.97;;
32964;SDS011;19317;48.226;11.686;2023-11-21T05:35:39;2.20;;;2.00;;
32964;SDS011;19317;48.226;11.686;2023-11-21T05:40:30;3.30;;;2.00;;
32964;SDS011;19317;48.226;11.686;2023-11-21T05:45:21;3.17;;;1.90;;
32964;SDS011;19317;48.226;11.686;2023-11-21T05:50:13;2.40;;;2.00;;
32964;SDS011;19317;48.226;11.686;2023-11-21T05:55:05;2.20;;;1.90;;
32964;SDS011;19317;48.226;11.686;2023-11-21T05:59:56;2.13;;;1.90;;
32964;SDS011;19317;48.226;11.686;2023-11-21T06:04:46;4.63;;;2.40;;
32964;SDS011;19317;48.226;11.686;2023-11-21T06:09:37;4.20;;;2.20;;
32964;SDS011;19317;48.226;11.686;2023-11-21T06:14:28;1.90;;;1.80;;
32964;SDS011;19317;48.226;11.686;2023-11-21T06:19:19;2.20;;;2.00;;
32964;SDS011;19317;48.226;11.686;2023-11-21T06:24:10;1.90;;;1.80;;
32964;SDS011;19317;48.226;11.686;2023-11-21T06:29:01;2.60;;;2.07;;
32964;SDS011;19317;48.226;11.686;2023-11-21T06:33:52;2.20;;;1.87;;
32964;SDS011;19317;48.226;11.686;2023-11-21T06:38:43;2.37;;;2.00;;
32964;SDS011;19317;48.226;11.686;2023-11-21T06:43:33;2.10;;;1.90;;
32964;SDS011;19317;48.226;11.686;2023-11-21T06:48:25;2.00;;;1.80;;
32964;SDS011;19317;48.226;11.686;2023-11-21T06:53:16;1.87;;;1.70;;
32964;SDS011;19317;48.226;11.686;2023-11-21T06:58:06;1.97;;;1.87;;
32964;SDS011;19317;48.226;11.686;2023-11-21T07:02:57;3.47;;;1.90;;
32964;SDS011;19317;48.226;11.686;2023-11-21T07:07:48;1.90;;;1.80;;
32964;SDS011;19317;48.226;11.686;2023-11-21T07:12:40;2.00;;;1.90;;
32964;SDS011;19317;48.226;11.686;2023-11-21T07:17:31;2.80;;;2.00;;
32964;SDS011;19317;48.226;11.686;2023-11-21T07:22:22;1.80;;;1.60;;
32964;SDS011;19317;48.226;11.686;2023-11-21T07:27:12;2.10;;;1.90;;
32964;SDS011;19317;48.226;11.686;2023-11-21T07:32:03;2.17;;;1.90;;
32964;SDS011;19317;48.226;11.686;2023-11-21T07:36:54;2.00;;;1.90;;
32964;SDS011;19317;48.226;11.686;2023-11-21T07:41:45;1.90;;;1.80;;
32964;SDS011;19317;48.226;11.686;2023-11-21T07:46:36;1.90;;;1.80;;
32964;SDS011;19317;48.226;11.686;2023-11-21T07:51:27;2.10;;;1.90;;
32964;SDS011;19317;48.226;11.686;2023-11-21T07:56:18;2.90;;;1.97;;
32964;SDS011;19317;48.226;11.686;2023-11-21T08:01:09;2.60;;;1.80;;
32964;SDS011;19317;48.226;11.686;2023-11-21T08:05:59;1.97;;;1.80;;
32964;SDS011;19317;48.226;11.686;2023-11-21T08:10:51;2.10;;;1.80;;
32964;SDS011;19317;48.226;11.686;2023-11-21T08:15:42;2.30;;;2.10;;
32964;SDS011;19317;48.226;11.686;2023-11-21T08:20:33;2.43;;;2.07;;
32964;SDS011;19317;48.226;11.686;2023-11-21T08:25:24;2.43;;;1.73;;
32964;SDS011;19317;48.226;11.686;2023-11-21T08:30:14;1.80;;;1.70;;
32964;SDS011;19317;48.226;11.686;2023-11-21T08:35:07;4.53;;;2.10;;
32964;SDS011;19317;48.226;11.686;2023-11-21T08:39:58;2.00;;;1.90;;
32964;SDS011;19317;48.226;11.686;2023-11-21T08:44:49;2.03;;;1.87;;
32964;SDS011;19317;48.226;11.686;2023-11-21T08:49:40;1.90;;;1.80;;
32964;SDS011;19317;48.226;11.686;2023-11-21T08:54:31;2.10;;;1.90;;
32964;SDS011;19317;48.226;11.686;2023-11-21T08:59:22;2.20;;;2.00;;
32964;SDS011;19317;48.226;11.686;2023-11-21T09:04:12;2.10;;;1.90;;
32964;SDS011;19317;48.226;11.686;2023-11-21T09:09:03;3.47;;;1.90;;
32964;SDS011;19317;48.226;11.686;2023-11-21T09:13:54;2.23;;;1.90;;
32964;SDS011;19317;48.226;11.686;2023-11-21T09:18:45;2.33;;;1.90;;
32964;SDS011;19317;48.226;11.686;2023-11-21T09:23:36;2.93;;;2.03;;
32964;SDS011;19317;48.226;11.686;2023-11-21T09:28:27;3.13;;;2.03;;
32964;SDS011;19317;48.226;11.686;2023-11-21T09:33:18;2.53;;;2.30;;
32964;SDS011;19317;48.226;11.686;2023-11-21T09:38:09;2.47;;;2.27;;
32964;SDS011;19317;48.226;11.686;2023-11-21T09:43:00;2.80;;;2.20;;
32964;SDS011;19317;48.226;11.686;2023-11-21T09:47:52;2.33;;;2.07;;
32964;SDS011;19317;48.226;11.686;2023-11-21T09:53:26;3.63;;;2.00;;
32964;SDS011;19317;48.226;11.686;2023-11-21T09:57:57;2.13;;;1.90;;
32964;SDS011;19317;48.226;11.686;2023-11-21T10:02:49;2.30;;;1.90;;
32964;SDS011;19317;48.226;11.686;2023-11-21T10:07:39;2.07;;;1.87;;
32964;SDS011;19317;48.226;11.686;2023-11-21T10:12:31;2.53;;;1.90;;
32964;SDS011;19317;48.226;11.686;2023-11-21T10:17:23;2.13;;;1.87;;
32964;SDS011;19317;48.226;11.686;2023-11-21T10:22:14;3.13;;;2.00;;
32964;SDS011;19317;48.226;11.686;2023-11-21T10:27:05;2.97;;;2.13;;
32964;SDS011;19317;48.226;11.686;2023-11-21T10:31:56;2.17;;;1.90;;
32964;SDS011;19317;48.226;11.686;2023-11-21T10:36:47;2.30;;;2.10;;
32964;SDS011;19317;48.226;11.686;2023-11-21T10:41:38;2.63;;;2.17;;
32964;SDS011;19317;48.226;11.686;2023-11-21T10:46:29;2.50;;;1.80;;
32964;SDS011;19317;48.226;11.686;2023-11-21T10:51:20;2.07;;;1.90;;
32964;SDS011;19317;48.226;11.686;2023-11-21T10:56:12;2.40;;;2.20;;
32964;SDS011;19317;48.226;11.686;2023-11-21T11:01:06;2.57;;;2.10;;
32964;SDS011;19317;48.226;11.686;2023-11-21T11:05:57;3.60;;;2.50;;
32964;SDS011;19317;48.226;11.686;2023-11-21T11:10:50;2.50;;;2.00;;
32964;SDS011;19317;48.226;11.686;2023-11-21T11:15:41;2.20;;;2.00;;
32964;SDS011;19317;48.226;11.686;2023-11-21T11:20:33;3.80;;;2.80;;
32964;SDS011;19317;48.226;11.686;2023-11-21T11:25:41;4.13;;;3.30;;
32964;SDS011;19317;48.226;11.686;2023-11-21T11:40:45;2.30;;;2.10;;
32964;SDS011;19317;48.226;11.686;2023-11-21T11:45:36;2.83;;;2.10;;
32964;SDS011;19317;48.226;11.686;2023-11-21T11:50:27;2.77;;;2.20;;
32964;SDS011;19317;48.226;11.686;2023-11-21T11:55:20;3.40;;;2.30;;
32964;SDS011;19317;48.226;11.686;2023-11-21T12:05:02;3.50;;;3.00;;
32964;SDS011;19317;48.226;11.686;2023-11-21T12:09:57;2.13;;;2.00;;
32964;SDS011;19317;48.226;11.686;2023-11-21T12:14:49;2.27;;;2.07;;
32964;SDS011;19317;48.226;11.686;2023-11-21T12:19:40;2.77;;;2.00;;
32964;SDS011;19317;48.226;11.686;2023-11-21T12:24:31;2.33;;;2.13;;
32964;SDS011;19317;48.226;11.686;2023-11-21T12:29:22;2.07;;;1.83;;
32964;SDS011;19317;48.226;11.686;2023-11-21T12:34:12;2.20;;;2.07;;
32964;SDS011;19317;48.226;11.686;2023-11-21T12:39:03;2.27;;;1.90;;
32964;SDS011;19317;48.226;11.686;2023-11-21T12:43:54;2.63;;;2.43;;
32964;SDS011;19317;48.226;11.686;2023-11-21T12:48:45;2.13;;;2.03;;
32964;SDS011;19317;48.226;11.686;2023-11-21T12:53:37;3.23;;;1.87;;
32964;SDS011;19317;48.226;11.686;2023-11-21T12:58:28;2.20;;;2.00;;
32964;SDS011;19317;48.226;11.686;2023-11-21T13:03:19;2.07;;;1.97;;
32964;SDS011;19317;48.226;11.686;2023-11-21T13:08:11;1.90;;;1.80;;
32964;SDS011;19317;48.226;11.686;2023-11-21T13:13:02;2.10;;;1.90;;
32964;SDS011;19317;48.226;11.686;2023-11-21T13:17:54;1.90;;;1.70;;
32964;SDS011;19317;48.226;11.686;2023-11-21T13:22:48;2.07;;;1.97;;
32964;SDS011;19317;48.226;11.686;2023-11-21T13:27:39;1.97;;;1.80;;
32964;SDS011;19317;48.226;11.686;2023-11-21T13:32:30;2.93;;;2.00;;
32964;SDS011;19317;48.226;11.686;2023-11-21T13:37:21;2.27;;;2.00;;
32964;SDS011;19317;48.226;11.686;2023-11-21T13:42:12;2.07;;;1.87;;
32964;SDS011;19317;48.226;11.686;2023-11-21T13:47:03;10.33;;;7.17;;
32964;SDS011;19317;48.226;11.686;2023-11-21T13:51:54;4.03;;;2.83;;
32964;SDS011;19317;48.226;11.686;2023-11-21T13:56:45;1.83;;;1.73;;
32964;SDS011;19317;48.226;11.686;2023-11-21T14:01:36;2.10;;;1.90;;
32964;SDS011;19317;48.226;11.686;2023-11-21T14:06:27;2.10;;;2.00;;
32964;SDS011;19317;48.226;11.686;2023-11-21T14:11:18;2.17;;;1.90;;
32964;SDS011;19317;48.226;11.686;2023-11-21T14:16:09;14.03;;;9.43;;
32964;SDS011;19317;48.226;11.686;2023-11-21T14:21:00;4.03;;;3.40;;
32964;SDS011;19317;48.226;11.686;2023-11-21T14:25:51;2.20;;;2.00;;
32964;SDS011;19317;48.226;11.686;2023-11-21T14:30:42;2.43;;;2.23;;
32964;SDS011;19317;48.226;11.686;2023-11-21T14:35:33;2.07;;;1.97;;
32964;SDS011;19317;48.226;11.686;2023-11-21T14:40:24;2.13;;;2.00;;
32964;SDS011;19317;48.226;11.686;2023-11-21T14:45:14;2.30;;;2.10;;
32964;SDS011;19317;48.226;11.686;2023-11-21T14:50:05;2.33;;;2.13;;
32964;SDS011;19317;48.226;11.686;2023-11-21T14:54:56;10.77;;;6.27;;
32964;SDS011;19317;48.226;11.686;2023-11-21T14:59:48;30.13;;;16.50;;
32964;SDS011;19317;48.226;11.686;2023-11-21T15:04:39;10.87;;;8.10;;
32964;SDS011;19317;48.226;11.686;2023-11-21T15:09:29;2.87;;;2.60;;
32964;SDS011;19317;48.226;11.686;2023-11-21T15:14:20;2.50;;;2.30;;
32964;SDS011;19317;48.226;11.686;2023-11-21T15:19:11;2.47;;;2.23;;
32964;SDS011;19317;48.226;11.686;2023-11-21T15:24:02;2.57;;;2.37;;
32964;SDS011;19317;48.226;11.686;2023-11-21T15:28:53;2.60;;;2.40;;
32964;SDS011;19317;48.226;11.686;2023-11-21T15:33:44;10.80;;;9.20;;
32964;SDS011;19317;48.226;11.686;2023-11-21T15:38:35;6.10;;;5.50;;
32964;SDS011;19317;48.226;11.686;2023-11-21T15:43:26;4.90;;;4.40;;
32964;SDS011;19317;48.226;11.686;2023-11-21T15:48:17;4.10;;;3.70;;
32964;SDS011;19317;48.226;11.686;2023-11-21T15:53:08;4.20;;;2.60;;
32964;SDS011;19317;48.226;11.686;2023-11-21T15:57:59;2.80;;;2.60;;
32964;SDS011;19317;48.226;11.686;2023-11-21T16:02:50;4.67;;;3.00;;
32964;SDS011;19317;48.226;11.686;2023-11-21T16:07:41;3.60;;;3.30;;
32964;SDS011;19317;48.226;11.686;2023-11-21T16:12:32;7.23;;;6.40;;
32964;SDS011;19317;48.226;11.686;2023-11-21T16:17:23;4.57;;;4.17;;
32964;SDS011;19317;48.226;11.686;2023-11-21T16:22:13;4.60;;;3.13;;
32964;SDS011;19317;48.226;11.686;2023-11-21T16:27:04;5.13;;;4.33;;
32964;SDS011;19317;48.226;11.686;2023-11-21T16:31:55;5.10;;;4.03;;
32964;SDS011;19317;48.226;11.686;2023-11-21T16:36:46;4.57;;;4.17;;
32964;SDS011;19317;48.226;11.686;2023-11-21T16:41:38;17.70;;;11.57;;
32964;SDS011;19317;48.226;11.686;2023-11-21T16:46:29;9.17;;;5.93;;
32964;SDS011;19317;48.226;11.686;2023-11-21T16:51:19;4.60;;;4.20;;
32964;SDS011;19317;48.226;11.686;2023-11-21T16:56:10;4.60;;;4.20;;
32964;SDS011;19317;48.226;11.686;2023-11-21T17:01:01;5.00;;;4.50;;
32964;SDS011;19317;48.226;11.686;2023-11-21T17:05:52;3.97;;;3.53;;
32964;SDS011;19317;48.226;11.686;2023-11-21T17:10:43;6.30;;;5.50;;
32964;SDS011;19317;48.226;11.686;2023-11-21T17:15:36;7.30;;;6.47;;
32964;SDS011;19317;48.226;11.686;2023-11-21T17:20:27;8.27;;;7.40;;
32964;SDS011;19317;48.226;11.686;2023-11-21T17:25:18;5.87;;;4.90;;
32964;SDS011;19317;48.226;11.686;2023-11-21T17:30:09;6.87;;;6.17;;
32964;SDS011;19317;48.226;11.686;2023-11-21T17:35:01;4.00;;;3.70;;
32964;SDS011;19317;48.226;11.686;2023-11-21T17:39:52;7.17;;;6.33;;
32964;SDS011;19317;48.226;11.686;2023-11-21T17:44:43;11.80;;;7.10;;
32964;SDS011;19317;48.226;11.686;2023-11-21T17:49:34;10.13;;;9.00;;
32964;SDS011;19317;48.226;11.686;2023-11-21T17:54:24;17.23;;;13.00;;
32964;SDS011;19317;48.226;11.686;2023-11-21T17:59:15;9.63;;;8.47;;
32964;SDS011;19317;48.226;11.686;2023-11-21T18:04:06;6.17;;;5.60;;
32964;SDS011;19317;48.226;11.686;2023-11-21T18:08:57;6.93;;;5.60;;
32964;SDS011;19317;48.226;11.686;2023-11-21T18:13:48;9.70;;;8.70;;
32964;SDS011;19317;48.226;11.686;2023-11-21T18:18:39;7.70;;;6.83;;
32964;SDS011;19317;48.226;11.686;2023-11-21T18:23:30;6.40;;;5.60;;
32964;SDS011;19317;48.226;11.686;2023-11-21T18:28:21;6.40;;;5.80;;
32964;SDS011;19317;48.226;11.686;2023-11-21T18:33:11;6.47;;;5.87;;
32964;SDS011;19317;48.226;11.686;2023-11-21T18:38:02;6.70;;;5.97;;
32964;SDS011;19317;48.226;11.686;2023-11-21T18:42:53;6.20;;;5.70;;
32964;SDS011;19317;48.226;11.686;2023-11-21T18:47:44;6.40;;;5.80;;
32964;SDS011;19317;48.226;11.686;2023-11-21T18:52:35;6.23;;;5.73;;
32964;SDS011;19317;48.226;11.686;2023-11-21T18:57:29;31.40;;;15.50;;
32964;SDS011;19317;48.226;11.686;2023-11-21T19:02:20;8.37;;;7.57;;
32964;SDS011;19317;48.226;11.686;2023-11-21T19:07:11;10.30;;;7.93;;
32964;SDS011;19317;48.226;11.686;2023-11-21T19:12:05;14.47;;;12.40;;
32964;SDS011;19317;48.226;11.686;2023-11-21T19:16:56;19.17;;;16.70;;
32964;SDS011;19317;48.226;11.686;2023-11-21T19:21:46;15.33;;;12.20;;
32964;SDS011;19317;48.226;11.686;2023-11-21T19:26:37;11.97;;;10.70;;
32964;SDS011;19317;48.226;11.686;2023-11-21T19:31:28;11.97;;;10.70;;
32964;SDS011;19317;48.226;11.686;2023-11-21T19:36:19;11.10;;;10.00;;
32964;SDS011;19317;48.226;11.686;2023-11-21T19:41:14;10.37;;;9.27;;
32964;SDS011;19317;48.226;11.686;2023-11-21T19:46:05;9.80;;;8.90;;
32964;SDS011;19317;48.226;11.686;2023-11-21T19:50:55;8.97;;;8.13;;
32964;SDS011;19317;48.226;11.686;2023-11-21T19:55:46;9.33;;;8.03;;
32964;SDS011;19317;48.226;11.686;2023-11-21T20:00:37;9.20;;;8.17;;
32964;SDS011;19317;48.226;11.686;2023-11-21T20:05:28;8.47;;;7.67;;
32964;SDS011;19317;48.226;11.686;2023-11-21T20:10:19;9.03;;;8.13;;
32964;SDS011;19317;48.226;11.686;2023-11-21T20:15:10;8.70;;;7.90;;
32964;SDS011;19317;48.226;11.686;2023-11-21T20:20:01;8.43;;;7.53;;
32964;SDS011;19317;48.226;11.686;2023-11-21T20:24:51;9.03;;;8.13;;
32964;SDS011;19317;48.226;11.686;2023-11-21T20:29:43;9.10;;;8.20;;
32964;SDS011;19317;48.226;11.686;2023-11-21T20:34:34;8.20;;;7.40;;
32964;SDS011;19317;48.226;11.686;2023-11-21T20:39:25;9.43;;;8.10;;
32964;SDS011;19317;48.226;11.686;2023-11-21T20:44:16;9.60;;;8.10;;
32964;SDS011;19317;48.226;11.686;2023-11-21T20:49:10;10.63;;;7.97;;
32964;SDS011;19317;48.226;11.686;2023-11-21T20:54:01;12.43;;;8.27;;
32964;SDS011;19317;48.226;11.686;2023-11-21T20:58:52;10.00;;;7.80;;
32964;SDS011;19317;48.226;11.686;2023-11-21T21:03:43;8.57;;;7.70;;
32964;SDS011;19317;48.226;11.686;2023-11-21T21:08:34;8.77;;;7.97;;
32964;SDS011;19317;48.226;11.686;2023-11-21T21:13:24;8.47;;;7.67;;
32964;SDS011;19317;48.226;11.686;2023-11-21T21:18:15;9.10;;;8.30;;
32964;SDS011;19317;48.226;11.686;2023-11-21T21:23:06;9.53;;;8.63;;
32964;SDS011;19317;48.226;11.686;2023-11-21T21:27:59;8.50;;;7.40;;
32964;SDS011;19317;48.226;11.686;2023-11-21T21:32:50;8.67;;;7.83;;
32964;SDS011;19317;48.226;11.686;2023-11-21T21:37:41;9.00;;;8.10;;
32964;SDS011;19317;48.226;11.686;2023-11-21T21:42:32;7.80;;;7.10;;
32964;SDS011;19317;48.226;11.686;2023-11-21T21:47:22;8.90;;;7.97;;
32964;SDS011;19317;48.226;11.686;2023-11-21T21:52:13;8.53;;;7.73;;
32964;SDS011;19317;48.226;11.686;2023-11-21T21:57:04;8.07;;;7.27;;
32964;SDS011;19317;48.226;11.686;2023-11-21T22:01:55;8.40;;;7.60;;
32964;SDS011;19317;48.226;11.686;2023-11-21T22:06:46;8.00;;;7.30;;
32964;SDS011;19317;48.226;11.686;2023-11-21T22:11:37;9.40;;;7.43;;
32964;SDS011;19317;48.226;11.686;2023-11-21T22:16:28;8.70;;;7.83;;
32964;SDS011;19317;48.226;11.686;2023-11-21T22:21:19;7.50;;;6.80;;
32964;SDS011;19317;48.226;11.686;2023-11-21T22:26:13;8.87;;;7.63;;
32964;SDS011;19317;48.226;11.686;2023-11-21T22:31:04;8.53;;;7.67;;
32964;SDS011;19317;48.226;11.686;2023-11-21T22:35:55;9.53;;;8.60;;
32964;SDS011;19317;48.226;11.686;2023-11-21T22:40:46;8.93;;;8.03;;
32964;SDS011;19317;48.226;11.686;2023-11-21T22:45:37;9.27;;;8.37;;
32964;SDS011;19317;48.226;11.686;2023-11-21T22:50:28;9.93;;;8.67;;
32964;SDS011;19317;48.226;11.686;2023-11-21T22:55:18;10.53;;;8.67;;
32964;SDS011;19317;48.226;11.686;2023-11-21T23:00:09;11.77;;;9.27;;
32964;SDS011;19317;48.226;11.686;2023-11-21T23:05:01;11.97;;;9.20;;
32964;SDS011;19317;48.226;11.686;2023-11-21T23:09:51;9.80;;;8.90;;
32964;SDS011;19317;48.226;11.686;2023-11-21T23:14:42;9.93;;;8.93;;
32964;SDS011;19317;48.226;11.686;2023-11-21T23:19:33;10.60;;;9.50;;
32964;SDS011;19317;48.226;11.686;2023-11-21T23:24:24;10.33;;;9.27;;
32964;SDS011;19317;48.226;11.686;2023-11-21T23:29:15;10.77;;;9.10;;
32964;SDS011;19317;48.226;11.686;2023-11-21T23:34:06;10.33;;;8.70;;
32964;SDS011;19317;48.226;11.686;2023-11-21T23:38:57;10.93;;;9.73;;
32964;SDS011;19317;48.226;11.686;2023-11-21T23:43:51;10.97;;;9.83;;
32964;SDS011;19317;48.226;11.686;2023-11-21T23:48:42;10.03;;;8.83;;
32964;SDS011;19317;48.226;11.686;2023-11-21T23:53:33;10.33;;;9.20;;
32964;SDS011;19317;48.226;11.686;2023-11-21T23:58:23;12.20;;;9.13;;
